METAR Data
IDs: Format: Raw Decoded Include TAF

Data at: 1451 UTC 25 Jan 2020

METAR for:KDAA (Fort Belvoir/Davison, VA, US)
Text:KDAA 251443Z AUTO 28005KT 10SM -DZ OVC012 09/07 A2986 RMK AO2 DZB43 SLP115 $
Temperature: 9.0°C ( 48°F)
Dewpoint: 7.0°C ( 45°F) [RH = 87%]
Pressure (altimeter):29.86 inches Hg (1011.3 mb) [Sea level pressure: 1011.5 mb]
Winds:from the W (280 degrees) at 6 MPH (5 knots; 2.6 m/s)
Visibility:10 or more sm (16+ km)
Ceiling:1200 feet AGL
Clouds: overcast cloud deck at 1200 feet AGL
Weather:-DZ (light drizzle)
QC Flag:automated observation with no human augmentation; SOME DATA ABOVE MAY BE INACCURATE!!!"$" is an indication the sensor requires maintenance.